createdAt,value
2023-03-13T00:00:03.641Z,100486.50
2023-03-13T00:03:08.056Z,100476.78
2023-03-13T00:06:11.027Z,100477.75
2023-03-13T00:09:16.608Z,100473.34
2023-03-13T00:12:20.008Z,100468.03
2023-03-13T00:15:22.889Z,100461.88
2023-03-13T00:18:25.843Z,100469.78
2023-03-13T00:21:30.104Z,100473.34
2023-03-13T00:24:34.920Z,100470.69
2023-03-13T00:27:37.880Z,100461.94
2023-03-13T00:30:40.868Z,100458.34
2023-03-13T00:33:45.786Z,100448.63
2023-03-13T00:36:48.678Z,100457.56
2023-03-13T00:39:53.024Z,100453.13
2023-03-13T00:42:56.210Z,100458.50
2023-03-13T00:45:59.349Z,100454.13
2023-03-13T00:49:02.343Z,100443.50
2023-03-13T00:52:05.559Z,100444.41
2023-03-13T00:55:11.076Z,100444.34
2023-03-13T00:58:14.030Z,100444.34
2023-03-13T01:01:19.211Z,100432.84
2023-03-13T01:04:22.141Z,100434.56
2023-03-13T01:07:27.412Z,100433.78
2023-03-13T01:10:31.831Z,100432.84
2023-03-13T01:13:35.262Z,100421.34
2023-03-13T01:16:39.704Z,100418.78
2023-03-13T01:19:44.351Z,100416.94
2023-03-13T01:22:47.322Z,100429.41
2023-03-13T01:25:51.719Z,100418.81
2023-03-13T01:28:55.726Z,100410.00
2023-03-13T01:31:58.894Z,100407.34
2023-03-13T01:35:01.954Z,100410.00
2023-03-13T01:38:04.876Z,100405.53
2023-03-13T01:41:12.116Z,100401.06
2023-03-13T01:44:23.369Z,100397.50
2023-03-13T01:47:26.733Z,100394.91
2023-03-13T01:50:49.020Z,100388.75
2023-03-13T01:54:05.683Z,100395.75
2023-03-13T01:57:18.092Z,100391.41
2023-03-13T02:00:25.105Z,100378.09
2023-03-13T02:03:29.115Z,100387.00
2023-03-13T02:06:39.844Z,100379.97
2023-03-13T02:09:46.236Z,100372.94
2023-03-13T02:12:51.123Z,100374.66
2023-03-13T02:15:54.120Z,100364.03
2023-03-13T02:18:57.216Z,100358.69
2023-03-13T02:22:08.008Z,100364.03
2023-03-13T02:25:18.056Z,100360.41
2023-03-13T02:28:26.358Z,100360.41
2023-03-13T02:31:30.780Z,100348.06
2023-03-13T02:34:39.249Z,100342.75
2023-03-13T02:37:44.095Z,100341.00
2023-03-13T02:40:54.375Z,100341.00
2023-03-13T02:43:59.262Z,100330.38
2023-03-13T02:47:02.755Z,100326.84
2023-03-13T02:50:06.371Z,100325.06
2023-03-13T02:53:09.759Z,100318.88
2023-03-13T02:56:14.826Z,100324.19
2023-03-13T02:59:20.027Z,100315.28
2023-03-13T03:02:25.091Z,100317.94
2023-03-13T03:05:29.587Z,100307.31
2023-03-13T03:08:34.547Z,100305.50
2023-03-13T03:11:39.143Z,100301.13
2023-03-13T03:14:48.192Z,100305.50
2023-03-13T03:17:52.370Z,100291.34
2023-03-13T03:20:55.818Z,100286.97
2023-03-13T03:23:58.755Z,100286.97
2023-03-13T03:27:01.728Z,100287.81
2023-03-13T03:30:14.103Z,100282.50
2023-03-13T03:33:17.045Z,100279.84
2023-03-13T03:36:22.318Z,100282.34
2023-03-13T03:39:25.852Z,100275.22
2023-03-13T03:42:29.523Z,100272.50
2023-03-13T03:45:34.029Z,100269.72
2023-03-13T03:48:38.489Z,100273.16
2023-03-13T03:51:43.471Z,100261.66
2023-03-13T03:54:47.205Z,100262.44
2023-03-13T03:57:51.994Z,100250.88
2023-03-13T04:01:10.453Z,100244.59
2023-03-13T04:04:14.885Z,100254.41
2023-03-13T04:07:20.984Z,100246.41
2023-03-13T04:10:24.884Z,100238.44
2023-03-13T04:13:27.880Z,100239.28
2023-03-13T04:16:36.017Z,100231.38
2023-03-13T04:19:39.309Z,100234.03
2023-03-13T04:22:43.634Z,100225.19
2023-03-13T04:25:47.191Z,100215.41
2023-03-13T04:28:50.568Z,100208.41
2023-03-13T04:31:59.683Z,100204.78
2023-03-13T04:35:12.526Z,100186.25
2023-03-13T04:38:38.975Z,100197.75
2023-03-13T04:42:02.244Z,100181.81
2023-03-13T04:45:40.278Z,100179.22
2023-03-13T04:49:02.880Z,100170.47
2023-03-13T04:52:23.628Z,100166.00
2023-03-13T04:55:45.326Z,100163.44
2023-03-13T04:59:17.651Z,100148.41
2023-03-13T05:02:43.417Z,100148.31
2023-03-13T05:06:10.945Z,100140.34
2023-03-13T05:09:52.164Z,100136.75
2023-03-13T05:13:21.185Z,100132.34
2023-03-13T05:16:34.804Z,100117.38
2023-03-13T05:19:50.168Z,100113.84
2023-03-13T05:23:01.493Z,100105.84
2023-03-13T05:26:22.814Z,100099.69
2023-03-13T05:29:45.934Z,100094.44
2023-03-13T05:32:53.686Z,100076.81
2023-03-13T05:36:14.825Z,100076.81
2023-03-13T05:39:38.051Z,100075.06
2023-03-13T05:43:07.636Z,100061.69
2023-03-13T05:46:39.384Z,100065.19
2023-03-13T05:50:00.894Z,100052.88
2023-03-13T05:53:35.891Z,100048.31
2023-03-13T05:56:48.819Z,100042.13
2023-03-13T06:00:21.545Z,100037.69
2023-03-13T06:04:02.485Z,100025.31
2023-03-13T06:07:07.751Z,100029.75
2023-03-13T06:10:12.455Z,100029.69
2023-03-13T06:13:20.003Z,100023.50
2023-03-13T06:16:26.025Z,100020.84
2023-03-13T06:19:33.422Z,100014.66
2023-03-13T06:22:36.341Z,100011.09
2023-03-13T06:25:39.474Z,99995.97
2023-03-13T06:28:43.742Z,99998.56
2023-03-13T06:31:46.819Z,99986.19
2023-03-13T06:34:49.753Z,99987.91
2023-03-13T06:37:52.720Z,99979.94
2023-03-13T06:40:55.809Z,99972.78
2023-03-13T06:44:00.152Z,99970.13
2023-03-13T06:47:03.266Z,99973.66
2023-03-13T06:50:07.075Z,99960.34
2023-03-13T06:53:16.616Z,99957.69
2023-03-13T06:56:21.728Z,99949.72
2023-03-13T06:59:26.232Z,99941.72
2023-03-13T07:02:29.195Z,99932.91
2023-03-13T07:05:32.365Z,99931.97
2023-03-13T07:08:36.551Z,99912.47
2023-03-13T07:11:39.442Z,99908.03
2023-03-13T07:14:43.818Z,99899.13
2023-03-13T07:17:46.758Z,99900.91
2023-03-13T07:20:54.240Z,99893.78
2023-03-13T07:23:57.241Z,99880.56
2023-03-13T07:27:07.136Z,99887.69
2023-03-13T07:30:13.441Z,99869.94
2023-03-13T07:33:16.560Z,99866.41
2023-03-13T07:36:19.803Z,99873.56
2023-03-13T07:39:22.974Z,99876.22
2023-03-13T07:42:25.895Z,99885.13
2023-03-13T07:45:30.257Z,99888.53
2023-03-13T07:48:34.927Z,99885.34
2023-03-13T07:51:43.851Z,99866.13
2023-03-13T07:54:47.866Z,99854.84
2023-03-13T07:57:51.332Z,99843.50
2023-03-13T08:00:56.062Z,99835.72
2023-03-13T08:04:02.230Z,99820.72
2023-03-13T08:07:09.445Z,99812.56
2023-03-13T08:10:13.442Z,99800.59
2023-03-13T08:13:16.429Z,99790.44
2023-03-13T08:16:22.781Z,99799.63
2023-03-13T08:19:25.783Z,99784.16
2023-03-13T08:22:28.687Z,99789.94
2023-03-13T08:25:32.062Z,99783.41
2023-03-13T08:28:35.489Z,99773.19
2023-03-13T08:31:43.984Z,99765.78
2023-03-13T08:34:46.937Z,99761.88
2023-03-13T08:37:49.988Z,99756.38
2023-03-13T08:40:57.812Z,99744.66
2023-03-13T08:44:00.874Z,99747.22
2023-03-13T08:47:07.376Z,99739.25
2023-03-13T08:50:11.349Z,99735.66
2023-03-13T08:53:14.316Z,99733.06
2023-03-13T08:56:18.791Z,99712.63
2023-03-13T08:59:22.156Z,99723.38
2023-03-13T09:02:26.692Z,99719.88
2023-03-13T09:05:29.666Z,99715.41
2023-03-13T09:08:33.838Z,99713.59
2023-03-13T09:11:39.405Z,99710.94
2023-03-13T09:14:42.671Z,99700.28
2023-03-13T09:17:46.997Z,99701.13
2023-03-13T09:20:49.950Z,99692.31
2023-03-13T09:23:53.417Z,99679.84
2023-03-13T09:27:01.326Z,99680.81
2023-03-13T09:30:05.248Z,99668.44
2023-03-13T09:33:09.688Z,99687.06
2023-03-13T09:36:13.229Z,99679.19
2023-03-13T09:39:16.304Z,99681.09
2023-03-13T09:42:22.941Z,99683.66
2023-03-13T09:45:34.042Z,99665.13
2023-03-13T09:48:42.598Z,99674.06
2023-03-13T09:51:50.391Z,99674.06
2023-03-13T10:12:26.115Z,99652.03
2023-03-13T10:15:38.660Z,99654.78
2023-03-13T10:18:45.981Z,99638.06
2023-03-13T10:21:53.105Z,99627.44
2023-03-13T10:24:59.416Z,99630.19
2023-03-13T10:31:40.549Z,99640.00
2023-03-13T10:34:58.944Z,99636.28
2023-03-13T10:38:07.008Z,99626.50
2023-03-13T10:41:21.865Z,99618.50
2023-03-13T10:44:31.078Z,99617.66
2023-03-13T10:54:31.916Z,99589.16
2023-03-13T10:57:36.465Z,99610.63
2023-03-13T11:00:41.133Z,99610.63
2023-03-13T11:03:44.967Z,99610.75
2023-03-13T11:06:52.665Z,99599.25
2023-03-13T11:10:01.429Z,99582.47
2023-03-13T11:13:04.241Z,99579.97
2023-03-13T11:16:22.340Z,99587.09
2023-03-13T11:19:34.792Z,99574.78
2023-03-13T11:22:56.573Z,99575.59
2023-03-13T11:26:07.531Z,99563.16
2023-03-13T11:29:17.965Z,99560.50
2023-03-13T11:32:25.057Z,99566.56
2023-03-13T11:35:40.471Z,99559.56
2023-03-13T11:38:48.968Z,99537.41
2023-03-13T11:42:01.701Z,99527.72
2023-03-13T11:45:11.288Z,99574.66
2023-03-13T11:48:26.706Z,99562.28
2023-03-13T11:51:40.540Z,99556.16
2023-03-13T11:54:59.825Z,99554.31
2023-03-13T11:58:28.580Z,99540.19
2023-03-13T12:01:36.909Z,99544.53
2023-03-13T12:04:44.825Z,99548.91
2023-03-13T12:07:53.828Z,99555.94
2023-03-13T12:11:07.572Z,99541.69
2023-03-13T12:14:16.976Z,99538.28
2023-03-13T12:17:30.920Z,99540.94
2023-03-13T12:20:43.251Z,99532.09
2023-03-13T12:23:54.132Z,99530.28
2023-03-13T12:27:02.536Z,99520.50
2023-03-13T12:30:20.110Z,99525.91
2023-03-13T12:33:27.187Z,99528.47
2023-03-13T12:36:34.868Z,99517.91
2023-03-13T12:39:43.744Z,99508.13
2023-03-13T12:42:52.427Z,99506.41
2023-03-13T12:46:21.292Z,99516.13
2023-03-13T12:49:55.861Z,99517.91
2023-03-13T12:53:18.462Z,99508.25
2023-03-13T12:56:42.711Z,99504.72
2023-03-13T12:59:48.603Z,99513.56
2023-03-13T13:03:08.861Z,99504.72
2023-03-13T13:06:14.371Z,99496.88
2023-03-13T13:09:23.089Z,99492.47
2023-03-13T13:12:27.210Z,99487.16
2023-03-13T13:15:31.177Z,99480.16
2023-03-13T13:18:35.988Z,99473.13
2023-03-13T13:21:39.138Z,99468.78
2023-03-13T13:24:49.383Z,99466.09
2023-03-13T13:27:52.580Z,99463.44
2023-03-13T13:30:56.911Z,99455.47
2023-03-13T13:34:01.211Z,99449.16
2023-03-13T13:37:05.043Z,99450.16
2023-03-13T13:40:20.637Z,99450.16
2023-03-13T13:43:26.917Z,99444.81
2023-03-13T13:46:33.303Z,99451.94
2023-03-13T13:49:54.420Z,99451.09
2023-03-13T13:53:31.544Z,99448.44
2023-03-13T13:56:44.027Z,99446.75
2023-03-13T13:59:51.220Z,99440.44
2023-03-13T14:02:55.605Z,99437.78
2023-03-13T14:06:03.813Z,99449.28
2023-03-13T14:09:18.126Z,99439.50
2023-03-13T14:12:28.608Z,99441.19
2023-03-13T14:15:33.057Z,99428.63
2023-03-13T14:18:36.065Z,99433.09
2023-03-13T14:21:40.219Z,99428.63
2023-03-13T14:24:43.515Z,99423.31
2023-03-13T14:27:47.896Z,99425.97
2023-03-13T14:30:53.610Z,99425.03
2023-03-13T14:33:57.840Z,99428.63
2023-03-13T14:37:17.623Z,99430.44
2023-03-13T14:40:24.799Z,99414.47
2023-03-13T14:43:33.488Z,99409.06
2023-03-13T14:46:38.223Z,99407.34
2023-03-13T14:49:41.262Z,99408.09
2023-03-13T14:52:50.236Z,99409.56
2023-03-13T14:56:11.997Z,99407.78
2023-03-13T14:59:18.207Z,99408.63
2023-03-13T15:02:24.285Z,99400.66
2023-03-13T15:05:34.548Z,99402.44
2023-03-13T15:08:40.926Z,99396.19
2023-03-13T15:11:45.053Z,99395.44
2023-03-13T15:14:49.149Z,99393.59
2023-03-13T15:17:51.941Z,99405.00
2023-03-13T15:20:56.813Z,99390.75
2023-03-13T15:24:03.665Z,99390.50
2023-03-13T15:27:16.171Z,99383.28
2023-03-13T15:30:20.356Z,99378.91
2023-03-13T15:33:25.037Z,99380.56
2023-03-13T15:36:28.905Z,99379.69
2023-03-13T15:39:33.040Z,99370.75
2023-03-13T15:42:35.895Z,99376.09
2023-03-13T15:45:41.126Z,99376.09
2023-03-13T15:48:43.931Z,99369.66
2023-03-13T15:51:46.928Z,99366.06
2023-03-13T15:54:52.367Z,99366.81
2023-03-13T15:57:55.235Z,99357.75
2023-03-13T16:00:59.160Z,99365.75
2023-03-13T16:04:01.968Z,99363.94
2023-03-13T16:07:11.297Z,99357.50
2023-03-13T16:10:19.709Z,99352.19
2023-03-13T16:13:22.764Z,99350.38
2023-03-13T16:16:28.646Z,99344.94
2023-03-13T16:19:32.011Z,99346.44
2023-03-13T16:22:34.880Z,99349.72
2023-03-13T16:25:39.446Z,99350.47
2023-03-13T16:28:42.180Z,99343.22
2023-03-13T16:31:45.070Z,99333.44
2023-03-13T16:34:47.840Z,99330.66
2023-03-13T16:37:51.967Z,99336.09
2023-03-13T16:40:56.297Z,99330.25
2023-03-13T16:43:59.345Z,99315.47
2023-03-13T16:47:06.085Z,99307.94
2023-03-13T16:50:20.031Z,99306.53
2023-03-13T16:53:22.796Z,99304.22
2023-03-13T16:56:31.573Z,99301.75
2023-03-13T16:59:34.440Z,99290.69
2023-03-13T17:02:37.685Z,99286.50
2023-03-13T17:05:40.558Z,99284.25
2023-03-13T17:08:44.059Z,99287.44
2023-03-13T17:11:48.285Z,99281.88
2023-03-13T17:14:51.076Z,99277.06
2023-03-13T17:17:54.913Z,99268.63
2023-03-13T17:20:57.741Z,99268.28
2023-03-13T17:24:01.284Z,99272.53
2023-03-13T17:27:05.641Z,99266.22
2023-03-13T17:30:19.208Z,99259.72
2023-03-13T17:33:22.013Z,99257.69
2023-03-13T17:36:27.576Z,99258.28
2023-03-13T17:39:30.310Z,99259.16
2023-03-13T17:42:34.425Z,99276.09
2023-03-13T17:45:37.403Z,99270.66
2023-03-13T17:48:40.196Z,99277.34
2023-03-13T17:51:45.069Z,99268.25
2023-03-13T17:54:47.854Z,99265.47
2023-03-13T17:57:53.175Z,99265.34
2023-03-13T18:00:55.963Z,99266.09
2023-03-13T18:03:59.334Z,99264.06
2023-03-13T18:07:02.168Z,99265.63
2023-03-13T18:10:08.961Z,99249.63
2023-03-13T18:13:13.100Z,99265.63
2023-03-13T18:16:24.107Z,99248.81
2023-03-13T18:19:27.836Z,99242.75
2023-03-13T18:22:30.934Z,99240.06
2023-03-13T18:25:33.782Z,99237.28
2023-03-13T18:28:38.368Z,99246.13
2023-03-13T18:31:43.766Z,99248.91
2023-03-13T18:34:46.939Z,99240.16
2023-03-13T18:37:50.069Z,99246.47
2023-03-13T18:40:52.946Z,99241.16
2023-03-13T18:43:57.146Z,99241.03
2023-03-13T18:47:00.156Z,99236.56
2023-03-13T18:50:02.921Z,99235.56
2023-03-13T18:53:05.762Z,99231.22
2023-03-13T18:56:16.816Z,99228.56
2023-03-13T18:59:22.715Z,99219.59
2023-03-13T19:02:25.719Z,99215.97
2023-03-13T19:05:28.760Z,99222.97
2023-03-13T19:08:31.588Z,99208.94
2023-03-13T19:11:34.400Z,99212.31
2023-03-13T19:14:38.629Z,99206.69
2023-03-13T19:17:43.676Z,99225.72
2023-03-13T19:20:46.576Z,99225.22
2023-03-13T19:23:50.417Z,99224.78
2023-03-13T19:26:58.580Z,99222.59
2023-03-13T19:30:03.057Z,99201.78
2023-03-13T19:33:05.887Z,99205.16
2023-03-13T19:36:13.186Z,99201.63
2023-03-13T19:39:17.503Z,99205.38
2023-03-13T19:42:20.289Z,99191.34
2023-03-13T19:45:24.520Z,99199.47
2023-03-13T19:48:27.286Z,99202.25
2023-03-13T19:51:31.210Z,99211.19
2023-03-13T19:54:33.973Z,99212.19
2023-03-13T19:57:36.950Z,99203.47
2023-03-13T20:00:41.374Z,99202.59
2023-03-13T20:03:45.105Z,99201.75
2023-03-13T20:06:48.024Z,99203.47
2023-03-13T20:09:50.885Z,99211.47
2023-03-13T20:12:54.171Z,99214.13
2023-03-13T20:15:58.409Z,99208.66
2023-03-13T20:19:01.972Z,99216.78
2023-03-13T20:22:05.333Z,99215.81
2023-03-13T20:25:08.741Z,99213.13
2023-03-13T20:28:11.620Z,99204.28
2023-03-13T20:31:17.950Z,99188.41
2023-03-13T20:34:20.844Z,99175.09
2023-03-13T20:37:23.605Z,99177.91
2023-03-13T20:40:26.386Z,99170.97
2023-03-13T20:43:29.601Z,99178.13
2023-03-13T20:46:33.837Z,99178.13
2023-03-13T20:49:36.604Z,99171.94
2023-03-13T20:52:39.472Z,99156.94
2023-03-13T20:55:42.482Z,99158.59
2023-03-13T20:58:45.407Z,99153.41
2023-03-13T21:01:49.623Z,99153.41
2023-03-13T21:04:52.455Z,99151.72
2023-03-13T21:07:55.291Z,99156.19
2023-03-13T21:10:58.051Z,99155.34
2023-03-13T21:14:00.812Z,99168.53
2023-03-13T21:17:05.316Z,99168.53
2023-03-13T21:20:11.619Z,99152.53
2023-03-13T21:23:14.454Z,99141.88
2023-03-13T21:26:17.248Z,99144.56
2023-03-13T21:29:20.079Z,99145.28
2023-03-13T21:32:24.548Z,99147.94
2023-03-13T21:35:27.584Z,99137.28
2023-03-13T21:38:30.763Z,99139.94
2023-03-13T21:41:35.190Z,99144.31
2023-03-13T21:44:38.009Z,99158.50
2023-03-13T21:47:42.180Z,99169.03
2023-03-13T21:50:44.931Z,99170.00
2023-03-13T21:53:47.652Z,99164.66
2023-03-13T21:56:50.476Z,99156.56
2023-03-13T21:59:53.214Z,99154.75
2023-03-13T22:02:57.318Z,99158.25
2023-03-13T22:06:00.061Z,99152.09
2023-03-13T22:09:04.126Z,99147.59
2023-03-13T22:12:07.087Z,99143.13
2023-03-13T22:15:11.284Z,99139.50
2023-03-13T22:18:16.251Z,99140.31
2023-03-13T22:21:19.473Z,99133.19
2023-03-13T22:24:22.277Z,99146.50
2023-03-13T22:27:25.444Z,99140.31
2023-03-13T22:30:28.199Z,99141.19
2023-03-13T22:33:33.081Z,99125.19
2023-03-13T22:36:35.880Z,99137.56
2023-03-13T22:39:39.361Z,99126.63
2023-03-13T22:42:42.347Z,99118.63
2023-03-13T22:45:48.039Z,99120.09
2023-03-13T22:48:52.193Z,99143.13
2023-03-13T22:51:55.017Z,99147.59
2023-03-13T22:54:58.233Z,99150.13
2023-03-13T22:58:01.200Z,99134.13
2023-03-13T23:01:07.583Z,99127.00
2023-03-13T23:04:11.772Z,99119.84
2023-03-13T23:07:14.748Z,99111.00
2023-03-13T23:10:18.295Z,99106.25
2023-03-13T23:13:21.089Z,99110.78
2023-03-13T23:16:23.870Z,99115.25
2023-03-13T23:19:28.284Z,99127.59
2023-03-13T23:22:32.872Z,99124.19
2023-03-13T23:25:35.888Z,99131.47
2023-03-13T23:28:39.951Z,99122.03
2023-03-13T23:31:42.727Z,99112.56
2023-03-13T23:34:47.003Z,99111.00
2023-03-13T23:37:50.950Z,99098.88
2023-03-13T23:40:54.220Z,99097.31
2023-03-13T23:43:56.998Z,99096.72
2023-03-13T23:46:59.778Z,99087.13
2023-03-13T23:50:05.298Z,99098.06
2023-03-13T23:53:08.125Z,99086.78
2023-03-13T23:56:11.448Z,99083.38
2023-03-13T23:59:14.191Z,99089.75
